sensor_id;sensor_type;location;lat;lon;timestamp;temperature;humidity
20337;DHT22;10326;53.660;10.200;2023-02-28T00:01:19;6.80;67.80
20337;DHT22;10326;53.660;10.200;2023-02-28T00:03:46;6.80;67.80
20337;DHT22;10326;53.660;10.200;2023-02-28T00:06:13;6.80;67.80
20337;DHT22;10326;53.660;10.200;2023-02-28T00:08:42;6.80;67.80
20337;DHT22;10326;53.660;10.200;2023-02-28T00:11:12;6.80;67.90
20337;DHT22;10326;53.660;10.200;2023-02-28T00:13:41;6.70;67.80
20337;DHT22;10326;53.660;10.200;2023-02-28T00:16:13;6.70;67.80
20337;DHT22;10326;53.660;10.200;2023-02-28T00:18:41;6.70;67.80
20337;DHT22;10326;53.660;10.200;2023-02-28T00:21:09;6.60;67.70
20337;DHT22;10326;53.660;10.200;2023-02-28T00:23:36;6.60;67.80
20337;DHT22;10326;53.660;10.200;2023-02-28T00:26:05;6.60;67.80
20337;DHT22;10326;53.660;10.200;2023-02-28T00:28:32;6.60;67.90
20337;DHT22;10326;53.660;10.200;2023-02-28T00:30:59;6.50;67.90
20337;DHT22;10326;53.660;10.200;2023-02-28T00:33:26;6.50;67.80
20337;DHT22;10326;53.660;10.200;2023-02-28T00:36:02;6.50;67.90
20337;DHT22;10326;53.660;10.200;2023-02-28T00:38:31;6.50;68.30
20337;DHT22;10326;53.660;10.200;2023-02-28T00:41:00;6.50;68.00
20337;DHT22;10326;53.660;10.200;2023-02-28T00:43:32;6.50;68.10
20337;DHT22;10326;53.660;10.200;2023-02-28T00:45:59;6.50;68.30
20337;DHT22;10326;53.660;10.200;2023-02-28T00:48:26;6.50;68.30
20337;DHT22;10326;53.660;10.200;2023-02-28T00:50:54;6.50;68.40
20337;DHT22;10326;53.660;10.200;2023-02-28T00:53:21;6.50;68.50
20337;DHT22;10326;53.660;10.200;2023-02-28T00:55:49;6.40;68.40
20337;DHT22;10326;53.660;10.200;2023-02-28T00:58:16;6.50;68.40
20337;DHT22;10326;53.660;10.200;2023-02-28T01:00:45;6.50;68.40
20337;DHT22;10326;53.660;10.200;2023-02-28T01:03:14;6.40;68.30
20337;DHT22;10326;53.660;10.200;2023-02-28T01:05:42;6.40;68.30
20337;DHT22;10326;53.660;10.200;2023-02-28T01:08:10;6.40;68.30
20337;DHT22;10326;53.660;10.200;2023-02-28T01:10:37;6.40;68.40
20337;DHT22;10326;53.660;10.200;2023-02-28T01:13:04;6.40;68.30
20337;DHT22;10326;53.660;10.200;2023-02-28T01:15:32;6.40;68.30
20337;DHT22;10326;53.660;10.200;2023-02-28T01:18:01;6.40;68.30
20337;DHT22;10326;53.660;10.200;2023-02-28T01:20:30;6.40;68.30
20337;DHT22;10326;53.660;10.200;2023-02-28T01:22:57;6.40;68.20
20337;DHT22;10326;53.660;10.200;2023-02-28T01:25:24;6.30;68.10
20337;DHT22;10326;53.660;10.200;2023-02-28T01:27:51;6.30;68.20
20337;DHT22;10326;53.660;10.200;2023-02-28T01:30:18;6.30;68.20
20337;DHT22;10326;53.660;10.200;2023-02-28T01:32:46;6.30;68.30
20337;DHT22;10326;53.660;10.200;2023-02-28T01:35:15;6.30;68.30
20337;DHT22;10326;53.660;10.200;2023-02-28T01:37:43;6.20;68.30
20337;DHT22;10326;53.660;10.200;2023-02-28T01:40:11;6.20;68.40
20337;DHT22;10326;53.660;10.200;2023-02-28T01:42:39;6.20;68.50
20337;DHT22;10326;53.660;10.200;2023-02-28T01:45:20;6.20;68.60
20337;DHT22;10326;53.660;10.200;2023-02-28T01:47:51;6.20;68.90
20337;DHT22;10326;53.660;10.200;2023-02-28T01:50:23;6.20;68.70
20337;DHT22;10326;53.660;10.200;2023-02-28T01:52:55;6.10;68.60
20337;DHT22;10326;53.660;10.200;2023-02-28T01:55:24;6.10;68.60
20337;DHT22;10326;53.660;10.200;2023-02-28T01:58:00;6.10;68.50
20337;DHT22;10326;53.660;10.200;2023-02-28T02:00:30;6.00;68.40
20337;DHT22;10326;53.660;10.200;2023-02-28T02:03:00;6.00;68.50
20337;DHT22;10326;53.660;10.200;2023-02-28T02:05:32;6.00;68.70
20337;DHT22;10326;53.660;10.200;2023-02-28T02:08:03;6.00;68.80
20337;DHT22;10326;53.660;10.200;2023-02-28T02:10:35;6.00;68.80
20337;DHT22;10326;53.660;10.200;2023-02-28T02:13:18;6.00;68.80
20337;DHT22;10326;53.660;10.200;2023-02-28T02:15:58;6.00;69.00
20337;DHT22;10326;53.660;10.200;2023-02-28T02:18:34;5.90;68.90
20337;DHT22;10326;53.660;10.200;2023-02-28T02:27:33;5.90;69.10
20337;DHT22;10326;53.660;10.200;2023-02-28T02:30:53;5.90;68.70
20337;DHT22;10326;53.660;10.200;2023-02-28T02:37:13;5.90;69.10
20337;DHT22;10326;53.660;10.200;2023-02-28T02:39:49;5.90;68.80
20337;DHT22;10326;53.660;10.200;2023-02-28T02:42:23;5.80;68.70
20337;DHT22;10326;53.660;10.200;2023-02-28T02:44:57;5.80;68.70
20337;DHT22;10326;53.660;10.200;2023-02-28T02:47:29;5.70;68.60
20337;DHT22;10326;53.660;10.200;2023-02-28T02:50:00;5.70;68.50
20337;DHT22;10326;53.660;10.200;2023-02-28T02:52:38;5.70;68.50
20337;DHT22;10326;53.660;10.200;2023-02-28T02:55:09;5.70;68.50
20337;DHT22;10326;53.660;10.200;2023-02-28T02:57:42;5.60;68.40
20337;DHT22;10326;53.660;10.200;2023-02-28T03:00:15;5.60;68.40
20337;DHT22;10326;53.660;10.200;2023-02-28T03:02:47;5.50;68.40
20337;DHT22;10326;53.660;10.200;2023-02-28T03:05:19;5.50;68.40
20337;DHT22;10326;53.660;10.200;2023-02-28T03:07:48;5.50;68.30
20337;DHT22;10326;53.660;10.200;2023-02-28T03:10:34;5.40;68.20
20337;DHT22;10326;53.660;10.200;2023-02-28T03:13:25;5.40;68.40
20337;DHT22;10326;53.660;10.200;2023-02-28T03:16:28;5.40;68.30
20337;DHT22;10326;53.660;10.200;2023-02-28T03:19:08;5.30;68.00
20337;DHT22;10326;53.660;10.200;2023-02-28T03:21:58;5.20;68.00
20337;DHT22;10326;53.660;10.200;2023-02-28T03:24:37;5.20;68.00
20337;DHT22;10326;53.660;10.200;2023-02-28T03:27:11;5.10;68.00
20337;DHT22;10326;53.660;10.200;2023-02-28T03:29:46;5.10;68.00
20337;DHT22;10326;53.660;10.200;2023-02-28T03:32:18;5.00;68.10
20337;DHT22;10326;53.660;10.200;2023-02-28T03:34:54;5.00;68.10
20337;DHT22;10326;53.660;10.200;2023-02-28T03:37:26;4.90;68.10
20337;DHT22;10326;53.660;10.200;2023-02-28T03:40:00;4.90;68.10
20337;DHT22;10326;53.660;10.200;2023-02-28T03:42:34;4.90;68.30
20337;DHT22;10326;53.660;10.200;2023-02-28T03:45:04;4.80;68.20
20337;DHT22;10326;53.660;10.200;2023-02-28T03:47:38;4.80;68.20
20337;DHT22;10326;53.660;10.200;2023-02-28T03:50:13;4.80;68.20
20337;DHT22;10326;53.660;10.200;2023-02-28T03:52:47;4.80;68.20
20337;DHT22;10326;53.660;10.200;2023-02-28T03:55:18;4.70;68.10
20337;DHT22;10326;53.660;10.200;2023-02-28T03:57:54;4.70;68.10
20337;DHT22;10326;53.660;10.200;2023-02-28T04:00:28;4.70;68.30
20337;DHT22;10326;53.660;10.200;2023-02-28T04:02:57;4.60;68.10
20337;DHT22;10326;53.660;10.200;2023-02-28T04:05:24;4.60;68.10
20337;DHT22;10326;53.660;10.200;2023-02-28T04:07:51;4.60;68.10
20337;DHT22;10326;53.660;10.200;2023-02-28T04:10:20;4.50;68.10
20337;DHT22;10326;53.660;10.200;2023-02-28T04:12:48;4.50;68.10
20337;DHT22;10326;53.660;10.200;2023-02-28T04:15:16;4.50;68.10
20337;DHT22;10326;53.660;10.200;2023-02-28T04:17:43;4.40;68.00
20337;DHT22;10326;53.660;10.200;2023-02-28T04:20:10;4.40;68.00
20337;DHT22;10326;53.660;10.200;2023-02-28T04:22:38;4.30;68.00
20337;DHT22;10326;53.660;10.200;2023-02-28T04:25:06;4.30;68.00
20337;DHT22;10326;53.660;10.200;2023-02-28T04:27:35;4.30;68.00
20337;DHT22;10326;53.660;10.200;2023-02-28T04:30:03;4.30;68.10
20337;DHT22;10326;53.660;10.200;2023-02-28T04:32:30;4.20;68.10
20337;DHT22;10326;53.660;10.200;2023-02-28T04:34:57;4.20;68.10
20337;DHT22;10326;53.660;10.200;2023-02-28T04:37:24;4.20;68.10
20337;DHT22;10326;53.660;10.200;2023-02-28T04:39:54;4.20;68.00
20337;DHT22;10326;53.660;10.200;2023-02-28T04:42:21;4.10;68.00
20337;DHT22;10326;53.660;10.200;2023-02-28T04:44:49;4.10;68.00
20337;DHT22;10326;53.660;10.200;2023-02-28T04:47:17;4.10;68.00
20337;DHT22;10326;53.660;10.200;2023-02-28T04:49:44;4.10;68.00
20337;DHT22;10326;53.660;10.200;2023-02-28T04:52:11;4.10;68.00
20337;DHT22;10326;53.660;10.200;2023-02-28T04:54:38;4.00;67.90
20337;DHT22;10326;53.660;10.200;2023-02-28T04:57:06;4.00;68.50
20337;DHT22;10326;53.660;10.200;2023-02-28T04:59:33;4.00;68.00
20337;DHT22;10326;53.660;10.200;2023-02-28T05:02:01;4.00;68.10
20337;DHT22;10326;53.660;10.200;2023-02-28T05:04:32;3.90;68.10
20337;DHT22;10326;53.660;10.200;2023-02-28T05:07:00;3.90;68.10
20337;DHT22;10326;53.660;10.200;2023-02-28T05:09:27;3.90;68.10
20337;DHT22;10326;53.660;10.200;2023-02-28T05:11:54;3.90;68.20
20337;DHT22;10326;53.660;10.200;2023-02-28T05:14:22;3.80;68.10
20337;DHT22;10326;53.660;10.200;2023-02-28T05:16:49;3.80;68.10
20337;DHT22;10326;53.660;10.200;2023-02-28T05:19:17;3.80;68.10
20337;DHT22;10326;53.660;10.200;2023-02-28T05:21:50;3.80;68.10
20337;DHT22;10326;53.660;10.200;2023-02-28T05:24:18;3.70;68.10
20337;DHT22;10326;53.660;10.200;2023-02-28T05:26:49;3.70;67.90
20337;DHT22;10326;53.660;10.200;2023-02-28T05:29:18;3.70;68.00
20337;DHT22;10326;53.660;10.200;2023-02-28T05:31:45;3.60;67.90
20337;DHT22;10326;53.660;10.200;2023-02-28T05:34:12;3.60;68.00
20337;DHT22;10326;53.660;10.200;2023-02-28T05:36:42;3.60;68.10
20337;DHT22;10326;53.660;10.200;2023-02-28T05:39:10;3.50;68.10
20337;DHT22;10326;53.660;10.200;2023-02-28T05:41:39;3.50;68.10
20337;DHT22;10326;53.660;10.200;2023-02-28T05:44:07;3.50;68.20
20337;DHT22;10326;53.660;10.200;2023-02-28T05:46:34;3.40;68.10
20337;DHT22;10326;53.660;10.200;2023-02-28T05:49:02;3.40;68.10
20337;DHT22;10326;53.660;10.200;2023-02-28T05:51:29;3.40;68.10
20337;DHT22;10326;53.660;10.200;2023-02-28T05:54:00;3.30;68.00
20337;DHT22;10326;53.660;10.200;2023-02-28T05:56:28;3.30;68.30
20337;DHT22;10326;53.660;10.200;2023-02-28T05:58:55;3.30;68.30
20337;DHT22;10326;53.660;10.200;2023-02-28T06:01:26;3.30;68.30
20337;DHT22;10326;53.660;10.200;2023-02-28T06:03:58;3.20;68.30
20337;DHT22;10326;53.660;10.200;2023-02-28T06:06:26;3.20;68.20
20337;DHT22;10326;53.660;10.200;2023-02-28T06:08:53;3.20;68.20
20337;DHT22;10326;53.660;10.200;2023-02-28T06:11:22;3.20;68.30
20337;DHT22;10326;53.660;10.200;2023-02-28T06:13:53;3.20;68.30
20337;DHT22;10326;53.660;10.200;2023-02-28T06:16:22;3.20;68.30
20337;DHT22;10326;53.660;10.200;2023-02-28T06:18:49;3.20;68.30
20337;DHT22;10326;53.660;10.200;2023-02-28T06:21:16;3.10;68.30
20337;DHT22;10326;53.660;10.200;2023-02-28T06:23:43;3.10;68.40
20337;DHT22;10326;53.660;10.200;2023-02-28T06:26:10;3.10;68.50
20337;DHT22;10326;53.660;10.200;2023-02-28T06:28:39;3.10;68.60
20337;DHT22;10326;53.660;10.200;2023-02-28T06:31:07;3.10;68.70
20337;DHT22;10326;53.660;10.200;2023-02-28T06:33:36;3.10;68.80
20337;DHT22;10326;53.660;10.200;2023-02-28T06:36:05;3.10;68.80
20337;DHT22;10326;53.660;10.200;2023-02-28T06:38:33;3.10;68.80
20337;DHT22;10326;53.660;10.200;2023-02-28T06:41:00;3.10;68.80
20337;DHT22;10326;53.660;10.200;2023-02-28T06:43:29;3.10;68.80
20337;DHT22;10326;53.660;10.200;2023-02-28T06:46:00;3.10;68.80
20337;DHT22;10326;53.660;10.200;2023-02-28T06:48:28;3.10;68.90
20337;DHT22;10326;53.660;10.200;2023-02-28T06:51:02;3.10;68.80
20337;DHT22;10326;53.660;10.200;2023-02-28T06:53:30;3.10;69.10
20337;DHT22;10326;53.660;10.200;2023-02-28T06:55:57;3.10;69.00
20337;DHT22;10326;53.660;10.200;2023-02-28T06:58:24;3.10;69.00
20337;DHT22;10326;53.660;10.200;2023-02-28T07:00:51;3.10;69.00
20337;DHT22;10326;53.660;10.200;2023-02-28T07:03:20;3.10;69.10
20337;DHT22;10326;53.660;10.200;2023-02-28T07:05:47;3.10;69.20
20337;DHT22;10326;53.660;10.200;2023-02-28T07:08:14;3.10;69.20
20337;DHT22;10326;53.660;10.200;2023-02-28T07:10:41;3.20;69.40
20337;DHT22;10326;53.660;10.200;2023-02-28T07:13:08;3.10;69.40
20337;DHT22;10326;53.660;10.200;2023-02-28T07:15:36;3.20;69.60
20337;DHT22;10326;53.660;10.200;2023-02-28T07:18:04;3.20;69.70
20337;DHT22;10326;53.660;10.200;2023-02-28T07:20:32;3.20;69.70
20337;DHT22;10326;53.660;10.200;2023-02-28T07:22:59;3.20;70.40
20337;DHT22;10326;53.660;10.200;2023-02-28T07:25:28;3.30;69.90
20337;DHT22;10326;53.660;10.200;2023-02-28T07:27:56;3.30;70.00
20337;DHT22;10326;53.660;10.200;2023-02-28T07:30:24;3.30;70.00
20337;DHT22;10326;53.660;10.200;2023-02-28T07:32:52;3.40;70.20
20337;DHT22;10326;53.660;10.200;2023-02-28T07:35:20;3.40;70.80
20337;DHT22;10326;53.660;10.200;2023-02-28T07:37:48;3.40;70.40
20337;DHT22;10326;53.660;10.200;2023-02-28T07:40:16;3.50;70.60
20337;DHT22;10326;53.660;10.200;2023-02-28T07:42:44;3.50;70.60
20337;DHT22;10326;53.660;10.200;2023-02-28T07:45:16;3.60;70.70
20337;DHT22;10326;53.660;10.200;2023-02-28T07:47:43;3.60;70.70
20337;DHT22;10326;53.660;10.200;2023-02-28T07:50:13;3.70;70.90
20337;DHT22;10326;53.660;10.200;2023-02-28T07:52:41;3.70;71.50
20337;DHT22;10326;53.660;10.200;2023-02-28T07:55:10;3.70;70.90
20337;DHT22;10326;53.660;10.200;2023-02-28T07:57:39;3.80;71.10
20337;DHT22;10326;53.660;10.200;2023-02-28T08:00:09;3.80;71.10
20337;DHT22;10326;53.660;10.200;2023-02-28T08:02:39;3.90;71.20
20337;DHT22;10326;53.660;10.200;2023-02-28T08:05:07;3.90;71.10
20337;DHT22;10326;53.660;10.200;2023-02-28T08:07:34;4.00;71.20
20337;DHT22;10326;53.660;10.200;2023-02-28T08:10:02;4.10;71.30
20337;DHT22;10326;53.660;10.200;2023-02-28T08:12:32;4.10;71.20
20337;DHT22;10326;53.660;10.200;2023-02-28T08:14:59;4.20;71.80
20337;DHT22;10326;53.660;10.200;2023-02-28T08:17:26;4.20;71.20
20337;DHT22;10326;53.660;10.200;2023-02-28T08:19:54;4.30;71.20
20337;DHT22;10326;53.660;10.200;2023-02-28T08:22:21;4.40;71.30
20337;DHT22;10326;53.660;10.200;2023-02-28T08:24:48;4.40;71.30
20337;DHT22;10326;53.660;10.200;2023-02-28T08:27:16;4.50;71.30
20337;DHT22;10326;53.660;10.200;2023-02-28T08:29:44;4.50;71.20
20337;DHT22;10326;53.660;10.200;2023-02-28T08:32:11;4.60;71.40
20337;DHT22;10326;53.660;10.200;2023-02-28T08:34:39;4.60;71.30
20337;DHT22;10326;53.660;10.200;2023-02-28T08:37:06;4.70;71.40
20337;DHT22;10326;53.660;10.200;2023-02-28T08:39:34;4.70;71.30
20337;DHT22;10326;53.660;10.200;2023-02-28T08:42:02;4.80;71.40
20337;DHT22;10326;53.660;10.200;2023-02-28T08:44:29;4.80;71.30
20337;DHT22;10326;53.660;10.200;2023-02-28T08:46:57;4.80;71.10
20337;DHT22;10326;53.660;10.200;2023-02-28T08:49:24;4.90;71.10
20337;DHT22;10326;53.660;10.200;2023-02-28T08:51:52;5.00;71.00
20337;DHT22;10326;53.660;10.200;2023-02-28T08:54:20;5.00;70.80
20337;DHT22;10326;53.660;10.200;2023-02-28T08:56:48;5.10;70.80
20337;DHT22;10326;53.660;10.200;2023-02-28T08:59:15;5.20;70.70
20337;DHT22;10326;53.660;10.200;2023-02-28T09:01:43;5.20;70.50
20337;DHT22;10326;53.660;10.200;2023-02-28T09:04:11;5.30;70.30
20337;DHT22;10326;53.660;10.200;2023-02-28T09:06:39;5.40;70.10
20337;DHT22;10326;53.660;10.200;2023-02-28T09:09:07;5.40;69.90
20337;DHT22;10326;53.660;10.200;2023-02-28T09:11:35;5.50;70.00
20337;DHT22;10326;53.660;10.200;2023-02-28T09:14:03;5.50;69.90
20337;DHT22;10326;53.660;10.200;2023-02-28T09:16:32;5.60;69.90
20337;DHT22;10326;53.660;10.200;2023-02-28T09:18:59;5.60;69.60
20337;DHT22;10326;53.660;10.200;2023-02-28T09:21:28;5.70;69.60
20337;DHT22;10326;53.660;10.200;2023-02-28T09:23:55;5.80;69.30
20337;DHT22;10326;53.660;10.200;2023-02-28T09:26:24;5.80;69.30
20337;DHT22;10326;53.660;10.200;2023-02-28T09:28:52;5.90;69.30
20337;DHT22;10326;53.660;10.200;2023-02-28T09:31:22;5.90;69.30
20337;DHT22;10326;53.660;10.200;2023-02-28T09:33:53;6.00;69.20
20337;DHT22;10326;53.660;10.200;2023-02-28T09:36:22;6.00;69.10
20337;DHT22;10326;53.660;10.200;2023-02-28T09:38:52;6.10;69.00
20337;DHT22;10326;53.660;10.200;2023-02-28T09:41:20;6.20;69.00
20337;DHT22;10326;53.660;10.200;2023-02-28T09:43:51;6.20;68.90
20337;DHT22;10326;53.660;10.200;2023-02-28T09:46:29;6.30;68.80
20337;DHT22;10326;53.660;10.200;2023-02-28T09:49:01;6.30;68.50
20337;DHT22;10326;53.660;10.200;2023-02-28T09:51:40;6.40;68.60
20337;DHT22;10326;53.660;10.200;2023-02-28T09:54:18;6.40;68.40
20337;DHT22;10326;53.660;10.200;2023-02-28T09:56:51;6.50;68.50
20337;DHT22;10326;53.660;10.200;2023-02-28T09:59:31;6.50;68.30
20337;DHT22;10326;53.660;10.200;2023-02-28T10:02:13;6.60;68.20
20337;DHT22;10326;53.660;10.200;2023-02-28T10:05:03;6.60;67.80
20337;DHT22;10326;53.660;10.200;2023-02-28T10:07:45;6.70;68.10
20337;DHT22;10326;53.660;10.200;2023-02-28T10:10:24;6.70;67.90
20337;DHT22;10326;53.660;10.200;2023-02-28T10:12:57;6.80;68.20
20337;DHT22;10326;53.660;10.200;2023-02-28T10:15:29;6.80;68.10
20337;DHT22;10326;53.660;10.200;2023-02-28T10:18:00;6.80;67.70
20337;DHT22;10326;53.660;10.200;2023-02-28T10:20:30;6.90;67.90
20337;DHT22;10326;53.660;10.200;2023-02-28T10:23:07;6.90;67.80
20337;DHT22;10326;53.660;10.200;2023-02-28T10:25:39;7.00;67.80
20337;DHT22;10326;53.660;10.200;2023-02-28T10:28:10;7.00;67.80
20337;DHT22;10326;53.660;10.200;2023-02-28T10:30:42;7.10;67.40
20337;DHT22;10326;53.660;10.200;2023-02-28T10:33:18;7.10;67.20
20337;DHT22;10326;53.660;10.200;2023-02-28T10:35:47;7.20;66.50
20337;DHT22;10326;53.660;10.200;2023-02-28T10:38:17;7.20;67.00
20337;DHT22;10326;53.660;10.200;2023-02-28T10:40:47;7.30;67.10
20337;DHT22;10326;53.660;10.200;2023-02-28T10:43:20;7.30;67.00
20337;DHT22;10326;53.660;10.200;2023-02-28T10:46:01;7.40;66.40
20337;DHT22;10326;53.660;10.200;2023-02-28T10:48:32;7.40;65.70
20337;DHT22;10326;53.660;10.200;2023-02-28T10:51:02;7.40;66.50
20337;DHT22;10326;53.660;10.200;2023-02-28T10:53:33;7.50;66.50
20337;DHT22;10326;53.660;10.200;2023-02-28T10:56:09;7.50;66.20
20337;DHT22;10326;53.660;10.200;2023-02-28T10:58:48;7.50;66.00
20337;DHT22;10326;53.660;10.200;2023-02-28T11:01:22;7.60;65.60
20337;DHT22;10326;53.660;10.200;2023-02-28T11:03:51;7.60;65.90
20337;DHT22;10326;53.660;10.200;2023-02-28T11:06:20;7.60;65.80
20337;DHT22;10326;53.660;10.200;2023-02-28T11:08:51;7.70;66.10
20337;DHT22;10326;53.660;10.200;2023-02-28T11:11:23;7.70;65.90
20337;DHT22;10326;53.660;10.200;2023-02-28T11:13:54;7.70;66.00
20337;DHT22;10326;53.660;10.200;2023-02-28T11:16:32;7.80;66.00
20337;DHT22;10326;53.660;10.200;2023-02-28T11:19:01;7.80;65.20
20337;DHT22;10326;53.660;10.200;2023-02-28T11:21:31;7.90;65.00
20337;DHT22;10326;53.660;10.200;2023-02-28T11:24:02;7.90;64.70
20337;DHT22;10326;53.660;10.200;2023-02-28T11:26:41;8.00;64.50
20337;DHT22;10326;53.660;10.200;2023-02-28T11:29:12;8.00;63.90
20337;DHT22;10326;53.660;10.200;2023-02-28T11:34:44;8.10;63.90
20337;DHT22;10326;53.660;10.200;2023-02-28T11:37:14;8.10;64.70
20337;DHT22;10326;53.660;10.200;2023-02-28T11:39:43;8.10;64.30
20337;DHT22;10326;53.660;10.200;2023-02-28T11:42:30;8.20;64.50
20337;DHT22;10326;53.660;10.200;2023-02-28T11:45:12;8.20;64.00
20337;DHT22;10326;53.660;10.200;2023-02-28T11:47:48;8.20;63.30
20337;DHT22;10326;53.660;10.200;2023-02-28T11:50:32;8.30;64.30
20337;DHT22;10326;53.660;10.200;2023-02-28T11:53:15;8.30;64.10
20337;DHT22;10326;53.660;10.200;2023-02-28T11:55:50;8.40;63.70
20337;DHT22;10326;53.660;10.200;2023-02-28T11:58:29;8.40;63.80
20337;DHT22;10326;53.660;10.200;2023-02-28T12:01:32;8.50;63.80
20337;DHT22;10326;53.660;10.200;2023-02-28T12:04:17;8.60;63.20
20337;DHT22;10326;53.660;10.200;2023-02-28T12:06:57;8.60;63.60
20337;DHT22;10326;53.660;10.200;2023-02-28T12:09:44;8.70;64.90
20337;DHT22;10326;53.660;10.200;2023-02-28T12:12:25;8.80;69.00
20337;DHT22;10326;53.660;10.200;2023-02-28T12:15:13;9.00;69.40
20337;DHT22;10326;53.660;10.200;2023-02-28T12:17:55;9.30;69.20
20337;DHT22;10326;53.660;10.200;2023-02-28T12:20:34;9.60;69.60
20337;DHT22;10326;53.660;10.200;2023-02-28T12:23:21;9.90;70.70
20337;DHT22;10326;53.660;10.200;2023-02-28T12:26:09;10.30;69.40
20337;DHT22;10326;53.660;10.200;2023-02-28T12:28:43;10.60;68.30
20337;DHT22;10326;53.660;10.200;2023-02-28T12:31:18;11.00;67.40
20337;DHT22;10326;53.660;10.200;2023-02-28T12:33:51;11.30;67.40
20337;DHT22;10326;53.660;10.200;2023-02-28T12:36:20;11.60;68.30
20337;DHT22;10326;53.660;10.200;2023-02-28T12:38:53;11.90;67.90
20337;DHT22;10326;53.660;10.200;2023-02-28T12:41:27;12.20;66.10
20337;DHT22;10326;53.660;10.200;2023-02-28T12:44:01;12.50;64.80
20337;DHT22;10326;53.660;10.200;2023-02-28T12:46:34;12.70;65.80
20337;DHT22;10326;53.660;10.200;2023-02-28T12:49:08;13.00;65.00
20337;DHT22;10326;53.660;10.200;2023-02-28T12:51:37;13.30;63.30
20337;DHT22;10326;53.660;10.200;2023-02-28T12:54:12;13.50;64.30
20337;DHT22;10326;53.660;10.200;2023-02-28T12:56:46;13.70;62.90
20337;DHT22;10326;53.660;10.200;2023-02-28T12:59:23;14.00;62.90
20337;DHT22;10326;53.660;10.200;2023-02-28T13:02:02;14.20;61.90
20337;DHT22;10326;53.660;10.200;2023-02-28T13:05:08;14.50;60.80
20337;DHT22;10326;53.660;10.200;2023-02-28T13:08:08;14.80;61.20
20337;DHT22;10326;53.660;10.200;2023-02-28T13:10:49;15.00;59.10
20337;DHT22;10326;53.660;10.200;2023-02-28T13:13:23;15.30;59.40
20337;DHT22;10326;53.660;10.200;2023-02-28T13:15:58;15.40;59.10
20337;DHT22;10326;53.660;10.200;2023-02-28T13:18:36;15.50;58.30
20337;DHT22;10326;53.660;10.200;2023-02-28T13:21:06;15.70;58.20
20337;DHT22;10326;53.660;10.200;2023-02-28T13:23:39;15.80;58.10
20337;DHT22;10326;53.660;10.200;2023-02-28T13:26:08;15.90;57.40
20337;DHT22;10326;53.660;10.200;2023-02-28T13:29:20;16.00;58.30
20337;DHT22;10326;53.660;10.200;2023-02-28T13:35:43;16.30;56.60
20337;DHT22;10326;53.660;10.200;2023-02-28T13:38:34;16.50;57.40
20337;DHT22;10326;53.660;10.200;2023-02-28T13:41:43;16.60;56.60
20337;DHT22;10326;53.660;10.200;2023-02-28T13:44:15;16.70;56.60
20337;DHT22;10326;53.660;10.200;2023-02-28T13:47:23;16.70;56.50
20337;DHT22;10326;53.660;10.200;2023-02-28T13:50:14;16.80;55.70
20337;DHT22;10326;53.660;10.200;2023-02-28T13:52:51;16.90;55.40
20337;DHT22;10326;53.660;10.200;2023-02-28T13:55:27;16.90;55.00
20337;DHT22;10326;53.660;10.200;2023-02-28T13:58:08;17.00;54.20
20337;DHT22;10326;53.660;10.200;2023-02-28T14:00:52;17.00;53.90
20337;DHT22;10326;53.660;10.200;2023-02-28T14:03:48;17.10;54.10
20337;DHT22;10326;53.660;10.200;2023-02-28T14:06:27;17.10;54.00
20337;DHT22;10326;53.660;10.200;2023-02-28T14:09:00;17.10;53.90
20337;DHT22;10326;53.660;10.200;2023-02-28T14:11:32;17.10;53.00
20337;DHT22;10326;53.660;10.200;2023-02-28T14:14:02;17.10;52.70
20337;DHT22;10326;53.660;10.200;2023-02-28T14:16:39;17.10;52.90
20337;DHT22;10326;53.660;10.200;2023-02-28T14:19:12;17.00;51.60
20337;DHT22;10326;53.660;10.200;2023-02-28T14:25:00;16.80;50.00
20337;DHT22;10326;53.660;10.200;2023-02-28T14:27:43;16.60;50.50
20337;DHT22;10326;53.660;10.200;2023-02-28T14:30:42;16.40;50.40
20337;DHT22;10326;53.660;10.200;2023-02-28T14:33:35;16.20;49.90
20337;DHT22;10326;53.660;10.200;2023-02-28T14:36:18;15.90;50.20
20337;DHT22;10326;53.660;10.200;2023-02-28T14:38:51;15.70;49.80
20337;DHT22;10326;53.660;10.200;2023-02-28T14:41:23;15.50;50.00
20337;DHT22;10326;53.660;10.200;2023-02-28T14:43:55;15.30;50.00
20337;DHT22;10326;53.660;10.200;2023-02-28T14:46:27;15.10;49.50
20337;DHT22;10326;53.660;10.200;2023-02-28T14:48:57;15.00;49.20
20337;DHT22;10326;53.660;10.200;2023-02-28T14:51:25;14.80;49.80
20337;DHT22;10326;53.660;10.200;2023-02-28T14:53:57;14.60;50.00
20337;DHT22;10326;53.660;10.200;2023-02-28T14:56:33;14.50;49.00
20337;DHT22;10326;53.660;10.200;2023-02-28T14:59:01;14.30;49.20
20337;DHT22;10326;53.660;10.200;2023-02-28T15:01:28;14.20;49.80
20337;DHT22;10326;53.660;10.200;2023-02-28T15:04:00;14.10;49.80
20337;DHT22;10326;53.660;10.200;2023-02-28T15:06:29;14.00;49.50
20337;DHT22;10326;53.660;10.200;2023-02-28T15:09:14;13.90;49.50
20337;DHT22;10326;53.660;10.200;2023-02-28T15:11:46;13.80;48.80
20337;DHT22;10326;53.660;10.200;2023-02-28T15:14:17;13.70;48.90
20337;DHT22;10326;53.660;10.200;2023-02-28T15:16:50;13.60;48.90
20337;DHT22;10326;53.660;10.200;2023-02-28T15:19:23;13.50;49.00
20337;DHT22;10326;53.660;10.200;2023-02-28T15:21:54;13.40;48.60
20337;DHT22;10326;53.660;10.200;2023-02-28T15:24:31;13.30;48.80
20337;DHT22;10326;53.660;10.200;2023-02-28T15:27:06;13.20;49.00
20337;DHT22;10326;53.660;10.200;2023-02-28T15:29:43;13.20;49.00
20337;DHT22;10326;53.660;10.200;2023-02-28T15:32:24;13.10;48.30
20337;DHT22;10326;53.660;10.200;2023-02-28T15:34:55;13.00;48.20
20337;DHT22;10326;53.660;10.200;2023-02-28T15:37:33;12.80;48.80
20337;DHT22;10326;53.660;10.200;2023-02-28T15:40:12;12.70;48.10
20337;DHT22;10326;53.660;10.200;2023-02-28T15:42:57;12.60;48.20
20337;DHT22;10326;53.660;10.200;2023-02-28T15:45:28;12.60;47.90
20337;DHT22;10326;53.660;10.200;2023-02-28T15:48:00;12.40;48.40
20337;DHT22;10326;53.660;10.200;2023-02-28T15:50:28;12.40;48.90
20337;DHT22;10326;53.660;10.200;2023-02-28T15:52:56;12.30;48.90
20337;DHT22;10326;53.660;10.200;2023-02-28T15:55:26;12.20;48.90
20337;DHT22;10326;53.660;10.200;2023-02-28T15:58:00;12.10;48.80
20337;DHT22;10326;53.660;10.200;2023-02-28T16:00:29;12.10;48.50
20337;DHT22;10326;53.660;10.200;2023-02-28T16:02:58;12.10;48.70
20337;DHT22;10326;53.660;10.200;2023-02-28T16:05:26;11.90;48.60
20337;DHT22;10326;53.660;10.200;2023-02-28T16:07:58;11.90;48.80
20337;DHT22;10326;53.660;10.200;2023-02-28T16:10:28;11.80;48.80
20337;DHT22;10326;53.660;10.200;2023-02-28T16:12:57;11.80;48.80
20337;DHT22;10326;53.660;10.200;2023-02-28T16:15:26;11.70;48.80
20337;DHT22;10326;53.660;10.200;2023-02-28T16:17:56;11.60;49.00
20337;DHT22;10326;53.660;10.200;2023-02-28T16:20:26;11.50;49.00